sensor_id;sensor_type;location;lat;lon;timestamp;pressure;altitude;pressure_sealevel;temperature;humidity
63970;BME280;50156;37.772;-122.432;2022-08-19T00:01:51;100899.78;;;17.80;100.00
63970;BME280;50156;37.772;-122.432;2022-08-19T00:04:22;100893.79;;;17.81;100.00
63970;BME280;50156;37.772;-122.432;2022-08-19T00:06:51;100889.39;;;17.88;100.00
63970;BME280;50156;37.772;-122.432;2022-08-19T00:09:21;100895.45;;;17.83;100.00
63970;BME280;50156;37.772;-122.432;2022-08-19T00:11:52;100899.48;;;17.58;100.00
63970;BME280;50156;37.772;-122.432;2022-08-19T00:14:21;100902.91;;;17.68;100.00
63970;BME280;50156;37.772;-122.432;2022-08-19T00:16:49;100905.95;;;17.69;100.00
63970;BME280;50156;37.772;-122.432;2022-08-19T00:19:18;100908.11;;;17.63;100.00
63970;BME280;50156;37.772;-122.432;2022-08-19T00:21:46;100907.09;;;17.46;100.00
63970;BME280;50156;37.772;-122.432;2022-08-19T00:24:16;100907.75;;;17.42;100.00
63970;BME280;50156;37.772;-122.432;2022-08-19T00:26:45;100921.33;;;17.50;100.00
63970;BME280;50156;37.772;-122.432;2022-08-19T00:29:15;100928.90;;;17.52;100.00
63970;BME280;50156;37.772;-122.432;2022-08-19T00:31:46;100926.11;;;17.49;100.00
63970;BME280;50156;37.772;-122.432;2022-08-19T00:34:15;100926.02;;;17.53;100.00
63970;BME280;50156;37.772;-122.432;2022-08-19T00:36:44;100928.15;;;17.38;100.00
63970;BME280;50156;37.772;-122.432;2022-08-19T00:39:14;100922.56;;;17.43;100.00
63970;BME280;50156;37.772;-122.432;2022-08-19T00:41:44;100933.09;;;17.32;100.00
63970;BME280;50156;37.772;-122.432;2022-08-19T00:44:15;100940.92;;;17.38;100.00
63970;BME280;50156;37.772;-122.432;2022-08-19T00:46:46;100947.38;;;17.36;100.00
63970;BME280;50156;37.772;-122.432;2022-08-19T00:49:19;100949.91;;;17.40;100.00
63970;BME280;50156;37.772;-122.432;2022-08-19T00:51:52;100947.32;;;17.30;100.00
63970;BME280;50156;37.772;-122.432;2022-08-19T00:54:22;100945.19;;;17.25;100.00
63970;BME280;50156;37.772;-122.432;2022-08-19T00:56:51;100949.17;;;17.27;100.00
63970;BME280;50156;37.772;-122.432;2022-08-19T00:59:21;100948.83;;;17.16;100.00
63970;BME280;50156;37.772;-122.432;2022-08-19T01:01:49;100956.74;;;17.14;100.00
63970;BME280;50156;37.772;-122.432;2022-08-19T01:04:18;100952.55;;;17.08;100.00
63970;BME280;50156;37.772;-122.432;2022-08-19T01:06:46;100959.99;;;17.06;100.00
63970;BME280;50156;37.772;-122.432;2022-08-19T01:09:14;100966.46;;;17.13;100.00
63970;BME280;50156;37.772;-122.432;2022-08-19T01:11:44;100964.54;;;17.08;100.00
63970;BME280;50156;37.772;-122.432;2022-08-19T01:14:14;100969.62;;;17.14;100.00
63970;BME280;50156;37.772;-122.432;2022-08-19T01:16:44;100963.92;;;17.04;100.00
63970;BME280;50156;37.772;-122.432;2022-08-19T01:19:29;100954.61;;;16.99;100.00
63970;BME280;50156;37.772;-122.432;2022-08-19T01:22:02;100954.79;;;17.06;100.00
63970;BME280;50156;37.772;-122.432;2022-08-19T01:24:32;100949.63;;;16.98;100.00
63970;BME280;50156;37.772;-122.432;2022-08-19T01:27:04;100950.36;;;16.97;100.00
63970;BME280;50156;37.772;-122.432;2022-08-19T01:29:37;100946.59;;;16.89;100.00
63970;BME280;50156;37.772;-122.432;2022-08-19T01:32:08;100935.34;;;16.70;100.00
63970;BME280;50156;37.772;-122.432;2022-08-19T01:34:37;100938.72;;;16.69;100.00
63970;BME280;50156;37.772;-122.432;2022-08-19T01:37:08;100933.29;;;16.65;100.00
63970;BME280;50156;37.772;-122.432;2022-08-19T01:39:39;100936.89;;;16.48;100.00
63970;BME280;50156;37.772;-122.432;2022-08-19T01:42:08;100944.69;;;16.54;100.00
63970;BME280;50156;37.772;-122.432;2022-08-19T01:44:38;100943.68;;;16.47;100.00
63970;BME280;50156;37.772;-122.432;2022-08-19T01:47:07;100949.74;;;16.48;100.00
63970;BME280;50156;37.772;-122.432;2022-08-19T01:49:36;100952.80;;;16.32;100.00
63970;BME280;50156;37.772;-122.432;2022-08-19T01:52:06;100953.67;;;16.46;100.00
63970;BME280;50156;37.772;-122.432;2022-08-19T01:54:34;100949.87;;;16.34;100.00
63970;BME280;50156;37.772;-122.432;2022-08-19T01:57:07;100958.33;;;16.39;100.00
63970;BME280;50156;37.772;-122.432;2022-08-19T01:59:36;100960.52;;;16.23;100.00
63970;BME280;50156;37.772;-122.432;2022-08-19T02:02:06;100965.70;;;16.27;100.00
63970;BME280;50156;37.772;-122.432;2022-08-19T02:04:36;100963.24;;;16.25;100.00
63970;BME280;50156;37.772;-122.432;2022-08-19T02:07:05;100970.36;;;16.12;100.00
63970;BME280;50156;37.772;-122.432;2022-08-19T02:09:35;100966.94;;;16.04;100.00
63970;BME280;50156;37.772;-122.432;2022-08-19T02:12:04;100977.18;;;16.03;100.00
63970;BME280;50156;37.772;-122.432;2022-08-19T02:14:35;100978.89;;;15.96;100.00
63970;BME280;50156;37.772;-122.432;2022-08-19T02:17:04;100978.77;;;15.92;100.00
63970;BME280;50156;37.772;-122.432;2022-08-19T02:19:33;100985.10;;;15.98;100.00
63970;BME280;50156;37.772;-122.432;2022-08-19T02:22:01;100984.07;;;16.02;100.00
63970;BME280;50156;37.772;-122.432;2022-08-19T02:24:31;100987.29;;;15.85;100.00
63970;BME280;50156;37.772;-122.432;2022-08-19T02:26:59;100984.32;;;15.82;100.00
63970;BME280;50156;37.772;-122.432;2022-08-19T02:29:27;100990.89;;;15.84;100.00
63970;BME280;50156;37.772;-122.432;2022-08-19T02:31:57;100999.33;;;15.82;100.00
63970;BME280;50156;37.772;-122.432;2022-08-19T02:34:25;101001.45;;;15.78;100.00
63970;BME280;50156;37.772;-122.432;2022-08-19T02:36:53;101002.35;;;15.62;100.00
63970;BME280;50156;37.772;-122.432;2022-08-19T02:39:22;101004.39;;;15.56;100.00
63970;BME280;50156;37.772;-122.432;2022-08-19T02:41:50;101014.74;;;15.67;100.00
63970;BME280;50156;37.772;-122.432;2022-08-19T02:44:18;101013.90;;;15.55;100.00
63970;BME280;50156;37.772;-122.432;2022-08-19T02:46:48;101014.82;;;15.62;100.00
63970;BME280;50156;37.772;-122.432;2022-08-19T02:49:17;101014.68;;;15.65;100.00
63970;BME280;50156;37.772;-122.432;2022-08-19T02:51:46;101014.96;;;15.70;100.00
63970;BME280;50156;37.772;-122.432;2022-08-19T02:54:16;101016.30;;;15.63;100.00
63970;BME280;50156;37.772;-122.432;2022-08-19T02:56:45;101015.25;;;15.46;100.00
63970;BME280;50156;37.772;-122.432;2022-08-19T02:59:14;101016.56;;;15.52;100.00
63970;BME280;50156;37.772;-122.432;2022-08-19T03:01:43;101023.88;;;15.38;100.00
63970;BME280;50156;37.772;-122.432;2022-08-19T03:04:13;101023.49;;;15.47;100.00
63970;BME280;50156;37.772;-122.432;2022-08-19T03:06:45;101024.01;;;15.40;100.00
63970;BME280;50156;37.772;-122.432;2022-08-19T03:09:14;101027.60;;;15.45;100.00
63970;BME280;50156;37.772;-122.432;2022-08-19T03:11:43;101026.33;;;15.44;100.00
63970;BME280;50156;37.772;-122.432;2022-08-19T03:14:12;101015.14;;;15.34;100.00
63970;BME280;50156;37.772;-122.432;2022-08-19T03:16:43;101032.75;;;15.39;100.00
63970;BME280;50156;37.772;-122.432;2022-08-19T03:19:12;101038.71;;;15.42;100.00
63970;BME280;50156;37.772;-122.432;2022-08-19T03:21:42;101042.40;;;15.41;100.00
63970;BME280;50156;37.772;-122.432;2022-08-19T03:24:10;101043.69;;;15.36;100.00
63970;BME280;50156;37.772;-122.432;2022-08-19T03:26:41;101044.74;;;15.31;100.00
63970;BME280;50156;37.772;-122.432;2022-08-19T03:29:10;101043.78;;;15.33;100.00
63970;BME280;50156;37.772;-122.432;2022-08-19T03:31:40;101054.76;;;15.34;100.00
63970;BME280;50156;37.772;-122.432;2022-08-19T03:34:10;101058.27;;;15.32;100.00
63970;BME280;50156;37.772;-122.432;2022-08-19T03:36:39;101050.99;;;15.26;100.00
63970;BME280;50156;37.772;-122.432;2022-08-19T03:39:07;101047.84;;;15.29;100.00
63970;BME280;50156;37.772;-122.432;2022-08-19T03:41:40;101045.87;;;15.19;100.00
63970;BME280;50156;37.772;-122.432;2022-08-19T03:44:09;101046.94;;;15.11;100.00
63970;BME280;50156;37.772;-122.432;2022-08-19T03:46:38;101047.33;;;15.18;100.00
63970;BME280;50156;37.772;-122.432;2022-08-19T03:49:06;101057.90;;;15.13;100.00
63970;BME280;50156;37.772;-122.432;2022-08-19T03:51:37;101061.09;;;15.06;100.00
63970;BME280;50156;37.772;-122.432;2022-08-19T03:54:09;101075.01;;;15.08;100.00
63970;BME280;50156;37.772;-122.432;2022-08-19T03:56:39;101075.19;;;15.11;100.00
63970;BME280;50156;37.772;-122.432;2022-08-19T03:59:10;101079.77;;;15.13;100.00
63970;BME280;50156;37.772;-122.432;2022-08-19T04:01:40;101084.32;;;15.17;100.00
63970;BME280;50156;37.772;-122.432;2022-08-19T04:04:09;101086.95;;;15.12;100.00
63970;BME280;50156;37.772;-122.432;2022-08-19T04:06:40;101085.69;;;15.04;100.00
63970;BME280;50156;37.772;-122.432;2022-08-19T04:09:10;101089.36;;;15.12;100.00
63970;BME280;50156;37.772;-122.432;2022-08-19T04:11:42;101086.44;;;15.14;100.00
63970;BME280;50156;37.772;-122.432;2022-08-19T04:14:13;101084.04;;;15.04;100.00
63970;BME280;50156;37.772;-122.432;2022-08-19T04:16:42;101088.52;;;14.98;100.00
63970;BME280;50156;37.772;-122.432;2022-08-19T04:19:13;101096.11;;;15.10;100.00
63970;BME280;50156;37.772;-122.432;2022-08-19T04:21:44;101101.84;;;15.10;100.00
63970;BME280;50156;37.772;-122.432;2022-08-19T04:24:14;101105.20;;;15.10;100.00
63970;BME280;50156;37.772;-122.432;2022-08-19T04:26:44;101108.63;;;15.22;100.00
63970;BME280;50156;37.772;-122.432;2022-08-19T04:29:16;101099.99;;;15.26;100.00
63970;BME280;50156;37.772;-122.432;2022-08-19T04:31:45;101105.84;;;15.15;100.00
63970;BME280;50156;37.772;-122.432;2022-08-19T04:34:17;101102.96;;;15.04;100.00
63970;BME280;50156;37.772;-122.432;2022-08-19T04:36:46;101102.84;;;15.04;100.00
63970;BME280;50156;37.772;-122.432;2022-08-19T04:39:16;101104.59;;;14.95;100.00
63970;BME280;50156;37.772;-122.432;2022-08-19T04:41:45;101104.17;;;14.97;100.00
63970;BME280;50156;37.772;-122.432;2022-08-19T04:44:14;101101.06;;;15.01;100.00
63970;BME280;50156;37.772;-122.432;2022-08-19T04:46:43;101102.44;;;14.97;100.00
63970;BME280;50156;37.772;-122.432;2022-08-19T04:49:12;101100.45;;;14.93;100.00
63970;BME280;50156;37.772;-122.432;2022-08-19T04:51:42;101093.17;;;14.86;100.00
63970;BME280;50156;37.772;-122.432;2022-08-19T04:54:12;101094.45;;;14.85;100.00
63970;BME280;50156;37.772;-122.432;2022-08-19T04:56:41;101091.04;;;14.76;100.00
63970;BME280;50156;37.772;-122.432;2022-08-19T04:59:10;101086.21;;;14.78;100.00
63970;BME280;50156;37.772;-122.432;2022-08-19T05:01:38;101084.79;;;14.79;100.00
63970;BME280;50156;37.772;-122.432;2022-08-19T05:04:07;101080.58;;;14.79;100.00
63970;BME280;50156;37.772;-122.432;2022-08-19T05:06:36;101080.17;;;14.87;100.00
63970;BME280;50156;37.772;-122.432;2022-08-19T05:09:06;101081.38;;;14.88;100.00
63970;BME280;50156;37.772;-122.432;2022-08-19T05:11:37;101081.58;;;14.79;100.00
63970;BME280;50156;37.772;-122.432;2022-08-19T05:14:06;101083.49;;;14.73;100.00
63970;BME280;50156;37.772;-122.432;2022-08-19T05:16:36;101084.47;;;14.68;100.00
63970;BME280;50156;37.772;-122.432;2022-08-19T05:19:05;101081.17;;;14.72;100.00
63970;BME280;50156;37.772;-122.432;2022-08-19T05:21:34;101074.26;;;14.73;100.00
63970;BME280;50156;37.772;-122.432;2022-08-19T05:24:05;101075.36;;;14.84;100.00
63970;BME280;50156;37.772;-122.432;2022-08-19T05:26:34;101076.55;;;14.67;100.00
63970;BME280;50156;37.772;-122.432;2022-08-19T05:29:03;101079.22;;;14.72;100.00
63970;BME280;50156;37.772;-122.432;2022-08-19T05:31:33;101082.13;;;14.70;100.00
63970;BME280;50156;37.772;-122.432;2022-08-19T05:34:02;101086.34;;;14.82;100.00
63970;BME280;50156;37.772;-122.432;2022-08-19T05:36:36;101078.42;;;14.84;100.00
63970;BME280;50156;37.772;-122.432;2022-08-19T05:39:04;101083.93;;;14.92;100.00
63970;BME280;50156;37.772;-122.432;2022-08-19T05:41:33;101086.26;;;14.94;100.00
63970;BME280;50156;37.772;-122.432;2022-08-19T05:44:04;101089.06;;;14.89;100.00
63970;BME280;50156;37.772;-122.432;2022-08-19T05:46:33;101087.93;;;14.87;100.00
63970;BME280;50156;37.772;-122.432;2022-08-19T05:49:02;101088.26;;;14.89;100.00
63970;BME280;50156;37.772;-122.432;2022-08-19T05:51:33;101082.73;;;14.77;100.00
63970;BME280;50156;37.772;-122.432;2022-08-19T05:54:02;101077.25;;;14.83;100.00
63970;BME280;50156;37.772;-122.432;2022-08-19T05:56:31;101079.38;;;14.71;100.00
63970;BME280;50156;37.772;-122.432;2022-08-19T05:59:00;101084.05;;;14.67;100.00
63970;BME280;50156;37.772;-122.432;2022-08-19T06:01:28;101078.99;;;14.64;100.00
63970;BME280;50156;37.772;-122.432;2022-08-19T06:03:56;101078.43;;;14.71;100.00
63970;BME280;50156;37.772;-122.432;2022-08-19T06:06:24;101076.42;;;14.75;100.00
63970;BME280;50156;37.772;-122.432;2022-08-19T06:08:53;101074.33;;;14.85;100.00
63970;BME280;50156;37.772;-122.432;2022-08-19T06:11:24;101072.84;;;14.79;100.00
63970;BME280;50156;37.772;-122.432;2022-08-19T06:13:54;101067.59;;;14.79;100.00
63970;BME280;50156;37.772;-122.432;2022-08-19T06:16:23;101071.70;;;14.82;100.00
63970;BME280;50156;37.772;-122.432;2022-08-19T06:18:53;101064.01;;;14.88;100.00
63970;BME280;50156;37.772;-122.432;2022-08-19T06:21:23;101062.34;;;14.80;100.00
63970;BME280;50156;37.772;-122.432;2022-08-19T06:23:53;101062.26;;;14.80;100.00
63970;BME280;50156;37.772;-122.432;2022-08-19T06:26:22;101064.54;;;14.79;100.00
63970;BME280;50156;37.772;-122.432;2022-08-19T06:28:51;101061.42;;;14.75;100.00
63970;BME280;50156;37.772;-122.432;2022-08-19T06:31:22;101063.18;;;14.82;100.00
63970;BME280;50156;37.772;-122.432;2022-08-19T06:33:51;101065.54;;;14.65;100.00
63970;BME280;50156;37.772;-122.432;2022-08-19T06:36:22;101062.56;;;14.63;100.00
63970;BME280;50156;37.772;-122.432;2022-08-19T06:38:51;101058.25;;;14.48;100.00
63970;BME280;50156;37.772;-122.432;2022-08-19T06:41:19;101054.50;;;14.55;100.00
63970;BME280;50156;37.772;-122.432;2022-08-19T06:43:48;101058.49;;;14.59;100.00
63970;BME280;50156;37.772;-122.432;2022-08-19T06:46:17;101055.45;;;14.70;100.00
63970;BME280;50156;37.772;-122.432;2022-08-19T06:48:46;101056.78;;;14.67;100.00
63970;BME280;50156;37.772;-122.432;2022-08-19T06:51:16;101048.83;;;14.61;100.00
63970;BME280;50156;37.772;-122.432;2022-08-19T06:53:45;101046.19;;;14.73;100.00
63970;BME280;50156;37.772;-122.432;2022-08-19T06:56:14;101045.16;;;14.81;100.00
63970;BME280;50156;37.772;-122.432;2022-08-19T06:58:43;101042.41;;;14.70;100.00
63970;BME280;50156;37.772;-122.432;2022-08-19T07:01:12;101040.65;;;14.74;100.00
63970;BME280;50156;37.772;-122.432;2022-08-19T07:03:41;101034.75;;;14.69;100.00
63970;BME280;50156;37.772;-122.432;2022-08-19T07:06:12;101029.65;;;14.64;100.00
63970;BME280;50156;37.772;-122.432;2022-08-19T07:08:41;101031.95;;;14.64;100.00
63970;BME280;50156;37.772;-122.432;2022-08-19T07:11:10;101026.66;;;14.69;100.00
63970;BME280;50156;37.772;-122.432;2022-08-19T07:13:40;101028.20;;;14.72;100.00
63970;BME280;50156;37.772;-122.432;2022-08-19T07:16:11;101027.48;;;14.75;100.00
63970;BME280;50156;37.772;-122.432;2022-08-19T07:18:40;101024.38;;;14.69;100.00
63970;BME280;50156;37.772;-122.432;2022-08-19T07:21:11;101024.46;;;14.82;100.00
63970;BME280;50156;37.772;-122.432;2022-08-19T07:23:40;101023.62;;;14.76;100.00
63970;BME280;50156;37.772;-122.432;2022-08-19T07:26:11;101022.05;;;14.68;100.00
63970;BME280;50156;37.772;-122.432;2022-08-19T07:28:40;101018.80;;;14.79;100.00
63970;BME280;50156;37.772;-122.432;2022-08-19T07:31:11;101018.76;;;14.69;100.00
63970;BME280;50156;37.772;-122.432;2022-08-19T07:33:40;101021.81;;;14.74;100.00
63970;BME280;50156;37.772;-122.432;2022-08-19T07:36:10;101024.41;;;14.70;100.00
63970;BME280;50156;37.772;-122.432;2022-08-19T07:38:41;101028.80;;;14.75;100.00
63970;BME280;50156;37.772;-122.432;2022-08-19T07:41:11;101026.48;;;14.72;100.00
63970;BME280;50156;37.772;-122.432;2022-08-19T07:43:40;101022.89;;;14.79;100.00
63970;BME280;50156;37.772;-122.432;2022-08-19T07:46:09;101025.14;;;14.82;100.00
63970;BME280;50156;37.772;-122.432;2022-08-19T07:48:38;101020.60;;;14.69;100.00
63970;BME280;50156;37.772;-122.432;2022-08-19T07:51:08;101019.39;;;14.49;100.00
63970;BME280;50156;37.772;-122.432;2022-08-19T07:53:37;101019.79;;;14.55;100.00
63970;BME280;50156;37.772;-122.432;2022-08-19T07:56:06;101021.35;;;14.59;100.00
63970;BME280;50156;37.772;-122.432;2022-08-19T07:58:40;101022.16;;;14.66;100.00
63970;BME280;50156;37.772;-122.432;2022-08-19T08:01:11;101023.24;;;14.48;100.00
63970;BME280;50156;37.772;-122.432;2022-08-19T08:03:40;101020.02;;;14.52;100.00
63970;BME280;50156;37.772;-122.432;2022-08-19T08:06:09;101015.28;;;14.47;100.00
63970;BME280;50156;37.772;-122.432;2022-08-19T08:08:37;101012.10;;;14.38;100.00
63970;BME280;50156;37.772;-122.432;2022-08-19T08:11:07;101012.91;;;14.41;100.00
63970;BME280;50156;37.772;-122.432;2022-08-19T08:13:35;101013.76;;;14.29;100.00
63970;BME280;50156;37.772;-122.432;2022-08-19T08:16:04;101009.57;;;14.30;100.00
63970;BME280;50156;37.772;-122.432;2022-08-19T08:18:34;101008.08;;;14.38;100.00
63970;BME280;50156;37.772;-122.432;2022-08-19T08:21:02;101006.31;;;14.43;100.00
63970;BME280;50156;37.772;-122.432;2022-08-19T08:23:30;101002.41;;;14.32;100.00
63970;BME280;50156;37.772;-122.432;2022-08-19T08:26:00;101002.67;;;14.40;100.00
63970;BME280;50156;37.772;-122.432;2022-08-19T08:28:30;101004.57;;;14.38;100.00
63970;BME280;50156;37.772;-122.432;2022-08-19T08:30:59;101001.06;;;14.32;100.00
63970;BME280;50156;37.772;-122.432;2022-08-19T08:33:28;101000.71;;;14.35;100.00
63970;BME280;50156;37.772;-122.432;2022-08-19T08:35:57;101000.63;;;14.31;100.00
63970;BME280;50156;37.772;-122.432;2022-08-19T08:38:26;100997.75;;;14.49;100.00
63970;BME280;50156;37.772;-122.432;2022-08-19T08:40:58;100998.16;;;14.48;100.00
63970;BME280;50156;37.772;-122.432;2022-08-19T08:43:31;100992.56;;;14.26;100.00
63970;BME280;50156;37.772;-122.432;2022-08-19T08:46:03;100988.42;;;14.31;100.00
63970;BME280;50156;37.772;-122.432;2022-08-19T08:48:38;100984.59;;;14.27;100.00
63970;BME280;50156;37.772;-122.432;2022-08-19T08:51:13;100984.85;;;14.34;100.00
63970;BME280;50156;37.772;-122.432;2022-08-19T08:53:45;100987.02;;;14.26;100.00
63970;BME280;50156;37.772;-122.432;2022-08-19T08:56:14;100987.20;;;14.15;100.00
63970;BME280;50156;37.772;-122.432;2022-08-19T08:58:49;100988.04;;;14.23;100.00
63970;BME280;50156;37.772;-122.432;2022-08-19T09:01:19;100993.92;;;14.17;100.00
63970;BME280;50156;37.772;-122.432;2022-08-19T09:03:47;100984.77;;;14.20;100.00
63970;BME280;50156;37.772;-122.432;2022-08-19T09:06:22;100982.21;;;14.25;100.00
63970;BME280;50156;37.772;-122.432;2022-08-19T09:09:01;100979.52;;;14.32;100.00
63970;BME280;50156;37.772;-122.432;2022-08-19T09:11:42;100976.61;;;14.24;100.00
63970;BME280;50156;37.772;-122.432;2022-08-19T09:14:19;100971.15;;;14.34;100.00
63970;BME280;50156;37.772;-122.432;2022-08-19T09:16:51;100970.26;;;14.25;100.00
63970;BME280;50156;37.772;-122.432;2022-08-19T09:19:19;100972.17;;;14.16;100.00
63970;BME280;50156;37.772;-122.432;2022-08-19T09:21:47;100972.00;;;14.19;100.00
63970;BME280;50156;37.772;-122.432;2022-08-19T09:24:16;100969.26;;;14.11;100.00
63970;BME280;50156;37.772;-122.432;2022-08-19T09:26:44;100969.30;;;14.20;100.00
63970;BME280;50156;37.772;-122.432;2022-08-19T09:29:12;100966.76;;;14.12;100.00
63970;BME280;50156;37.772;-122.432;2022-08-19T09:31:40;100960.16;;;14.21;100.00
63970;BME280;50156;37.772;-122.432;2022-08-19T09:34:08;100959.28;;;14.12;100.00
63970;BME280;50156;37.772;-122.432;2022-08-19T09:36:37;100956.13;;;14.08;100.00
63970;BME280;50156;37.772;-122.432;2022-08-19T09:39:06;100953.84;;;14.16;100.00
63970;BME280;50156;37.772;-122.432;2022-08-19T09:41:35;100951.33;;;14.17;100.00
63970;BME280;50156;37.772;-122.432;2022-08-19T09:44:04;100952.85;;;14.13;100.00
63970;BME280;50156;37.772;-122.432;2022-08-19T09:46:33;100952.00;;;14.19;100.00
63970;BME280;50156;37.772;-122.432;2022-08-19T09:49:01;100953.67;;;14.16;100.00
63970;BME280;50156;37.772;-122.432;2022-08-19T09:51:30;100952.20;;;14.14;100.00
63970;BME280;50156;37.772;-122.432;2022-08-19T09:54:02;100943.88;;;14.24;100.00
63970;BME280;50156;37.772;-122.432;2022-08-19T09:56:32;100941.57;;;14.16;100.00
63970;BME280;50156;37.772;-122.432;2022-08-19T09:59:02;100939.50;;;14.21;100.00
63970;BME280;50156;37.772;-122.432;2022-08-19T10:01:32;100945.60;;;14.17;100.00
63970;BME280;50156;37.772;-122.432;2022-08-19T10:04:01;100941.68;;;14.21;100.00
63970;BME280;50156;37.772;-122.432;2022-08-19T10:06:31;100944.55;;;14.15;100.00
63970;BME280;50156;37.772;-122.432;2022-08-19T10:08:59;100944.91;;;14.09;100.00
63970;BME280;50156;37.772;-122.432;2022-08-19T10:11:28;100951.29;;;13.96;100.00
63970;BME280;50156;37.772;-122.432;2022-08-19T10:13:56;100950.12;;;13.95;100.00
63970;BME280;50156;37.772;-122.432;2022-08-19T10:16:25;100949.20;;;13.99;100.00
63970;BME280;50156;37.772;-122.432;2022-08-19T10:18:55;100946.93;;;14.15;100.00
63970;BME280;50156;37.772;-122.432;2022-08-19T10:21:26;100948.97;;;14.04;100.00
63970;BME280;50156;37.772;-122.432;2022-08-19T10:23:56;100952.12;;;14.03;100.00
63970;BME280;50156;37.772;-122.432;2022-08-19T10:26:27;100956.97;;;14.00;100.00
63970;BME280;50156;37.772;-122.432;2022-08-19T10:28:56;100957.81;;;14.15;100.00
63970;BME280;50156;37.772;-122.432;2022-08-19T10:31:26;100954.72;;;14.07;100.00
63970;BME280;50156;37.772;-122.432;2022-08-19T10:33:56;100956.21;;;14.13;100.00
63970;BME280;50156;37.772;-122.432;2022-08-19T10:36:26;100954.94;;;14.02;100.00
63970;BME280;50156;37.772;-122.432;2022-08-19T10:38:58;100952.59;;;14.06;100.00
63970;BME280;50156;37.772;-122.432;2022-08-19T10:41:28;100950.14;;;13.93;100.00
63970;BME280;50156;37.772;-122.432;2022-08-19T10:43:59;100948.09;;;13.94;100.00
63970;BME280;50156;37.772;-122.432;2022-08-19T10:46:28;100947.15;;;14.06;100.00
63970;BME280;50156;37.772;-122.432;2022-08-19T10:48:57;100944.68;;;14.01;100.00
63970;BME280;50156;37.772;-122.432;2022-08-19T10:51:26;100941.10;;;13.97;100.00
63970;BME280;50156;37.772;-122.432;2022-08-19T10:53:54;100938.39;;;14.05;100.00
63970;BME280;50156;37.772;-122.432;2022-08-19T10:56:23;100935.62;;;14.11;100.00
63970;BME280;50156;37.772;-122.432;2022-08-19T10:58:52;100929.39;;;14.15;100.00
63970;BME280;50156;37.772;-122.432;2022-08-19T11:01:20;100926.62;;;14.07;100.00
63970;BME280;50156;37.772;-122.432;2022-08-19T11:03:49;100934.41;;;14.11;100.00
63970;BME280;50156;37.772;-122.432;2022-08-19T11:06:17;100932.88;;;14.21;100.00
63970;BME280;50156;37.772;-122.432;2022-08-19T11:08:46;100934.02;;;14.30;100.00
63970;BME280;50156;37.772;-122.432;2022-08-19T11:11:15;100927.84;;;14.32;100.00
63970;BME280;50156;37.772;-122.432;2022-08-19T11:13:43;100923.26;;;14.34;100.00
63970;BME280;50156;37.772;-122.432;2022-08-19T11:16:14;100920.41;;;14.30;100.00
63970;BME280;50156;37.772;-122.432;2022-08-19T11:18:46;100915.70;;;14.31;100.00
63970;BME280;50156;37.772;-122.432;2022-08-19T11:21:18;100910.05;;;14.01;100.00
63970;BME280;50156;37.772;-122.432;2022-08-19T11:23:47;100916.74;;;13.96;100.00
63970;BME280;50156;37.772;-122.432;2022-08-19T11:26:18;100927.57;;;13.97;100.00
63970;BME280;50156;37.772;-122.432;2022-08-19T11:28:47;100929.63;;;13.93;100.00
63970;BME280;50156;37.772;-122.432;2022-08-19T11:31:17;100931.68;;;13.89;100.00
63970;BME280;50156;37.772;-122.432;2022-08-19T11:33:48;100926.66;;;13.95;100.00
63970;BME280;50156;37.772;-122.432;2022-08-19T11:36:16;100924.12;;;13.90;100.00
63970;BME280;50156;37.772;-122.432;2022-08-19T11:38:45;100922.38;;;13.87;100.00
63970;BME280;50156;37.772;-122.432;2022-08-19T11:41:14;100919.25;;;13.90;100.00
63970;BME280;50156;37.772;-122.432;2022-08-19T11:43:43;100917.82;;;13.92;100.00
63970;BME280;50156;37.772;-122.432;2022-08-19T11:46:12;100918.08;;;13.81;100.00
63970;BME280;50156;37.772;-122.432;2022-08-19T11:48:42;100915.57;;;13.80;100.00
63970;BME280;50156;37.772;-122.432;2022-08-19T11:51:13;100916.82;;;13.84;100.00
63970;BME280;50156;37.772;-122.432;2022-08-19T11:53:41;100916.47;;;13.79;100.00
63970;BME280;50156;37.772;-122.432;2022-08-19T11:56:10;100915.96;;;13.79;100.00
63970;BME280;50156;37.772;-122.432;2022-08-19T11:58:40;100915.26;;;13.73;100.00
63970;BME280;50156;37.772;-122.432;2022-08-19T12:01:10;100911.79;;;13.82;100.00
63970;BME280;50156;37.772;-122.432;2022-08-19T12:03:39;100914.66;;;13.90;100.00
63970;BME280;50156;37.772;-122.432;2022-08-19T12:06:10;100915.55;;;13.82;100.00
63970;BME280;50156;37.772;-122.432;2022-08-19T12:08:39;100918.50;;;13.78;100.00
63970;BME280;50156;37.772;-122.432;2022-08-19T12:11:08;100915.58;;;13.73;100.00
63970;BME280;50156;37.772;-122.432;2022-08-19T12:13:38;100917.21;;;13.73;100.00
63970;BME280;50156;37.772;-122.432;2022-08-19T12:16:09;100920.84;;;13.84;100.00
63970;BME280;50156;37.772;-122.432;2022-08-19T12:18:38;100923.48;;;13.82;100.00
63970;BME280;50156;37.772;-122.432;2022-08-19T12:21:07;100919.32;;;13.85;100.00
63970;BME280;50156;37.772;-122.432;2022-08-19T12:23:36;100914.73;;;13.92;100.00